Time;durP1;ratioP1;P1;durP2;ratioP2;P2;SDS_P1;SDS_P2;PMS_P1;PMS_P2;Temp;Humidity;BMP_temperature;BMP_pressure;BME280_temperature;BME280_humidity;BME280_pressure;Samples;Min_cycle;Max_cycle;Signal;HPM_P1;HPM_P2
2023/08/04 00:01:31;;;;;;;8.32;3.67;;;;;;;;;;5047627;28;20145;-65
2023/08/04 00:03:58;;;;;;;12.85;3.65;;;;;;;;;;5052209;28;20503;-64
2023/08/04 00:06:24;;;;;;;7.70;2.75;;;;;;;;;;5060987;28;20053;-62
2023/08/04 00:08:51;;;;;;;6.13;2.92;;;;;;;;;;5043928;28;20053;-64
2023/08/04 00:11:17;;;;;;;10.48;2.75;;;;;;;;;;5062573;28;20057;-65
2023/08/04 00:13:44;;;;;;;9.77;2.80;;;;;;;;;;5043322;28;20065;-60
2023/08/04 00:16:10;;;;;;;10.40;3.53;;;;;;;;;;5045727;28;20053;-65
2023/08/04 00:18:37;;;;;;;15.05;3.40;;;;;;;;;;5058948;28;20060;-66
2023/08/04 00:21:04;;;;;;;9.45;3.03;;;;;;;;;;5042237;28;20058;-63
2023/08/04 00:23:30;;;;;;;11.02;3.00;;;;;;;;;;5044955;28;20565;-65
2023/08/04 00:25:56;;;;;;;15.32;4.70;;;;;;;;;;5054535;28;20519;-64
2023/08/04 00:28:23;;;;;;;12.10;3.08;;;;;;;;;;5043889;28;20112;-65
2023/08/04 00:30:49;;;;;;;10.90;2.85;;;;;;;;;;5049538;28;20063;-64
2023/08/04 00:33:16;;;;;;;11.45;3.05;;;;;;;;;;5057258;28;20061;-62
2023/08/04 00:35:42;;;;;;;9.85;2.97;;;;;;;;;;5041917;28;20058;-64
2023/08/04 00:38:09;;;;;;;9.63;3.00;;;;;;;;;;5054603;28;20479;-63
2023/08/04 00:40:36;;;;;;;11.98;3.33;;;;;;;;;;5064878;28;20049;-64
2023/08/04 00:43:03;;;;;;;7.55;2.72;;;;;;;;;;5064729;28;20499;-65
2023/08/04 00:45:30;;;;;;;12.32;2.88;;;;;;;;;;5056172;28;20053;-65
2023/08/04 00:47:57;;;;;;;12.05;3.40;;;;;;;;;;5058421;28;20133;-65
2023/08/04 00:50:23;;;;;;;8.13;2.80;;;;;;;;;;5058498;28;20053;-65
2023/08/04 00:52:50;;;;;;;8.50;2.60;;;;;;;;;;5060947;28;20136;-65
2023/08/04 00:55:17;;;;;;;8.07;2.63;;;;;;;;;;5049633;28;20095;-62
2023/08/04 00:57:43;;;;;;;7.85;2.67;;;;;;;;;;5064748;28;20072;-65
2023/08/04 01:00:10;;;;;;;6.10;2.95;;;;;;;;;;5064754;28;20590;-65
2023/08/04 01:02:36;;;;;;;10.07;2.47;;;;;;;;;;5053208;28;20057;-60
2023/08/04 01:05:03;;;;;;;7.25;2.60;;;;;;;;;;5063120;28;20511;-63
2023/08/04 01:07:35;;;;;;;10.77;2.95;;;;;;;;;;5053389;28;20056;-65
2023/08/04 01:10:04;;;;;;;13.25;3.00;;;;;;;;;;5045417;28;20060;-62
2023/08/04 01:12:30;;;;;;;7.68;2.95;;;;;;;;;;5051220;28;20076;-65
2023/08/04 01:14:57;;;;;;;15.27;3.50;;;;;;;;;;5053618;28;20085;-63
2023/08/04 01:17:25;;;;;;;9.63;3.25;;;;;;;;;;5064266;28;20107;-64
2023/08/04 01:19:52;;;;;;;8.77;2.65;;;;;;;;;;5055801;28;20061;-64
2023/08/04 01:22:20;;;;;;;8.13;3.10;;;;;;;;;;5053519;28;20420;-62
2023/08/04 01:24:47;;;;;;;7.15;3.70;;;;;;;;;;5062782;28;20258;-62
2023/08/04 01:27:15;;;;;;;5.03;2.30;;;;;;;;;;5053078;28;20052;-64
2023/08/04 01:29:43;;;;;;;8.20;3.05;;;;;;;;;;5064876;28;20057;-65
2023/08/04 01:32:09;;;;;;;10.27;3.08;;;;;;;;;;5047224;28;20076;-65
2023/08/04 01:34:36;;;;;;;9.70;2.90;;;;;;;;;;5058843;28;20522;-64
2023/08/04 01:37:03;;;;;;;13.80;2.53;;;;;;;;;;5053073;28;20111;-65
2023/08/04 01:39:29;;;;;;;9.38;2.53;;;;;;;;;;5064884;28;20085;-64
2023/08/04 01:41:56;;;;;;;4.97;2.50;;;;;;;;;;5062350;28;20057;-64
2023/08/04 01:44:22;;;;;;;9.25;2.70;;;;;;;;;;5055781;28;20077;-62
2023/08/04 01:46:48;;;;;;;8.10;2.63;;;;;;;;;;5060889;28;20075;-64
2023/08/04 01:49:15;;;;;;;4.88;2.40;;;;;;;;;;5049840;28;20693;-65
2023/08/04 01:51:41;;;;;;;7.97;2.53;;;;;;;;;;5048189;28;20080;-62
2023/08/04 01:54:08;;;;;;;7.35;2.53;;;;;;;;;;5046991;28;20053;-63
2023/08/04 01:56:34;;;;;;;10.38;3.17;;;;;;;;;;5060659;28;20577;-65
2023/08/04 01:59:00;;;;;;;6.53;2.30;;;;;;;;;;5047592;28;20057;-63
2023/08/04 02:01:27;;;;;;;12.02;2.72;;;;;;;;;;5054486;28;20266;-63
2023/08/04 02:03:53;;;;;;;6.97;3.00;;;;;;;;;;5051675;28;20133;-66
2023/08/04 02:06:19;;;;;;;8.63;2.67;;;;;;;;;;5063467;28;20675;-66
2023/08/04 02:08:46;;;;;;;10.98;2.72;;;;;;;;;;5063602;28;20053;-60
2023/08/04 02:11:12;;;;;;;8.35;2.90;;;;;;;;;;5046470;28;20064;-66
2023/08/04 02:13:39;;;;;;;10.40;2.97;;;;;;;;;;5053633;28;20072;-61
2023/08/04 02:16:05;;;;;;;9.30;2.92;;;;;;;;;;5062859;28;20085;-64
2023/08/04 02:18:32;;;;;;;5.97;2.70;;;;;;;;;;5061838;28;20049;-65
2023/08/04 02:20:58;;;;;;;10.38;2.90;;;;;;;;;;5063378;28;20059;-62
2023/08/04 02:23:25;;;;;;;8.45;3.35;;;;;;;;;;5059092;28;20089;-64
2023/08/04 02:25:51;;;;;;;10.15;3.10;;;;;;;;;;5044467;28;20085;-63
2023/08/04 02:28:18;;;;;;;8.88;3.03;;;;;;;;;;5053972;28;20777;-64
2023/08/04 02:30:44;;;;;;;7.97;2.47;;;;;;;;;;5043387;28;20435;-65
2023/08/04 02:33:13;;;;;;;9.95;3.35;;;;;;;;;;5052968;28;20060;-66
2023/08/04 02:35:40;;;;;;;13.90;4.13;;;;;;;;;;5061505;28;20053;-63
2023/08/04 02:38:06;;;;;;;12.10;3.70;;;;;;;;;;5063074;28;20448;-64
2023/08/04 02:40:38;;;;;;;26.02;4.47;;;;;;;;;;5063294;28;20217;-62
2023/08/04 02:43:05;;;;;;;11.13;3.28;;;;;;;;;;5063518;28;20507;-63
2023/08/04 02:45:31;;;;;;;9.90;3.45;;;;;;;;;;5053924;28;20049;-65
2023/08/04 02:47:58;;;;;;;6.85;3.28;;;;;;;;;;5043679;28;20140;-64
2023/08/04 02:50:24;;;;;;;10.45;3.30;;;;;;;;;;5055577;28;20057;-63
2023/08/04 02:52:51;;;;;;;8.95;2.90;;;;;;;;;;5057311;28;20132;-66
2023/08/04 02:55:17;;;;;;;9.52;3.35;;;;;;;;;;5053766;28;20547;-65
2023/08/04 02:57:43;;;;;;;6.13;3.03;;;;;;;;;;5062435;28;20057;-65
2023/08/04 03:00:11;;;;;;;10.50;4.18;;;;;;;;;;5060319;28;20156;-65
2023/08/04 03:02:37;;;;;;;6.45;3.65;;;;;;;;;;5041604;28;20500;-64
2023/08/04 03:05:04;;;;;;;10.85;3.60;;;;;;;;;;5054072;28;20068;-62
2023/08/04 03:07:32;;;;;;;10.23;3.42;;;;;;;;;;5061373;28;20479;-65
2023/08/04 03:09:58;;;;;;;11.38;3.40;;;;;;;;;;5047474;28;20149;-65
2023/08/04 03:12:25;;;;;;;8.68;2.58;;;;;;;;;;5046100;28;20046;-62
2023/08/04 03:14:51;;;;;;;9.45;2.97;;;;;;;;;;5062353;28;20151;-65
2023/08/04 03:17:17;;;;;;;7.40;3.08;;;;;;;;;;5059264;28;20223;-64
2023/08/04 03:19:44;;;;;;;5.40;2.70;;;;;;;;;;5055936;28;20132;-62
2023/08/04 03:22:10;;;;;;;12.55;3.15;;;;;;;;;;5061694;28;20530;-65
2023/08/04 03:24:36;;;;;;;12.60;3.15;;;;;;;;;;5060362;28;20496;-66
2023/08/04 03:27:03;;;;;;;10.00;4.53;;;;;;;;;;5046976;28;20140;-61
2023/08/04 03:29:29;;;;;;;8.55;2.92;;;;;;;;;;5061386;28;20564;-65
2023/08/04 03:31:56;;;;;;;8.60;3.50;;;;;;;;;;5049819;28;20053;-65
2023/08/04 03:34:22;;;;;;;12.90;3.80;;;;;;;;;;5062899;28;20057;-63
2023/08/04 03:36:49;;;;;;;8.45;2.72;;;;;;;;;;5062720;28;20083;-65
2023/08/04 03:39:15;;;;;;;9.05;3.28;;;;;;;;;;5046296;28;20057;-63
2023/08/04 03:41:42;;;;;;;8.73;3.33;;;;;;;;;;5044437;28;20614;-65
2023/08/04 03:44:09;;;;;;;10.25;3.13;;;;;;;;;;5059855;28;20518;-61
2023/08/04 03:46:35;;;;;;;8.40;2.88;;;;;;;;;;5060703;28;20536;-65
2023/08/04 03:49:02;;;;;;;14.35;3.38;;;;;;;;;;5055514;28;20548;-62
2023/08/04 03:51:28;;;;;;;15.15;3.42;;;;;;;;;;5050782;28;20049;-64
2023/08/04 03:53:54;;;;;;;16.25;3.35;;;;;;;;;;5049769;28;20058;-66
2023/08/04 03:56:21;;;;;;;10.27;3.70;;;;;;;;;;5056558;28;20503;-62
2023/08/04 03:58:47;;;;;;;12.38;4.22;;;;;;;;;;5058101;28;20063;-65
2023/08/04 04:01:17;;;;;;;6.63;3.15;;;;;;;;;;5060266;28;20057;-66
2023/08/04 04:03:44;;;;;;;13.00;3.70;;;;;;;;;;5054549;28;20606;-65
2023/08/04 04:06:10;;;;;;;16.48;4.40;;;;;;;;;;5047924;28;20045;-65
2023/08/04 04:08:37;;;;;;;12.40;3.85;;;;;;;;;;5058207;28;20087;-64
2023/08/04 04:11:03;;;;;;;8.02;4.07;;;;;;;;;;5053079;28;20554;-62
2023/08/04 04:13:30;;;;;;;12.48;3.40;;;;;;;;;;5052298;28;20053;-64
2023/08/04 04:15:56;;;;;;;7.00;3.42;;;;;;;;;;5047058;28;20058;-66
2023/08/04 04:18:23;;;;;;;6.90;3.22;;;;;;;;;;5050594;28;20060;-65
2023/08/04 04:20:49;;;;;;;8.35;2.80;;;;;;;;;;5047439;28;20427;-65
2023/08/04 04:23:16;;;;;;;6.78;2.97;;;;;;;;;;5065888;28;20530;-65
2023/08/04 04:25:42;;;;;;;9.27;3.28;;;;;;;;;;5052841;28;20140;-63
2023/08/04 04:28:09;;;;;;;6.93;3.38;;;;;;;;;;5053165;28;20064;-65
2023/08/04 04:30:35;;;;;;;8.02;3.28;;;;;;;;;;5062606;28;20139;-65
2023/08/04 04:33:02;;;;;;;7.47;4.18;;;;;;;;;;5064430;28;20491;-63
2023/08/04 04:35:28;;;;;;;5.75;3.28;;;;;;;;;;5053821;28;20119;-64
2023/08/04 04:37:55;;;;;;;8.93;3.78;;;;;;;;;;5047313;28;20861;-63
2023/08/04 04:40:21;;;;;;;14.30;4.88;;;;;;;;;;5056716;28;20447;-65
2023/08/04 04:42:47;;;;;;;10.70;3.95;;;;;;;;;;5064580;28;20147;-63
2023/08/04 04:45:14;;;;;;;10.48;3.42;;;;;;;;;;5050997;28;20049;-63
2023/08/04 04:47:40;;;;;;;7.68;3.75;;;;;;;;;;5058815;28;21605;-65
2023/08/04 04:50:07;;;;;;;5.10;2.88;;;;;;;;;;5065162;28;20520;-66
2023/08/04 04:52:35;;;;;;;6.25;2.10;;;;;;;;;;5075811;28;20041;-65
2023/08/04 04:55:02;;;;;;;5.90;2.47;;;;;;;;;;5065969;28;20067;-63
2023/08/04 04:57:29;;;;;;;4.32;2.20;;;;;;;;;;5070328;28;20066;-65
2023/08/04 04:59:55;;;;;;;6.05;2.53;;;;;;;;;;5050595;28;20143;-64
2023/08/04 05:02:22;;;;;;;5.28;2.40;;;;;;;;;;5058805;28;20057;-66
2023/08/04 05:04:48;;;;;;;6.97;2.50;;;;;;;;;;5064910;28;20506;-63
2023/08/04 05:07:15;;;;;;;7.22;2.80;;;;;;;;;;5065025;28;20491;-65
2023/08/04 05:09:41;;;;;;;6.10;3.17;;;;;;;;;;5064535;28;20053;-66
2023/08/04 05:12:08;;;;;;;8.10;2.92;;;;;;;;;;5053615;28;20124;-62
2023/08/04 05:14:34;;;;;;;6.25;3.13;;;;;;;;;;5044067;28;20147;-66
2023/08/04 05:17:01;;;;;;;10.25;3.40;;;;;;;;;;5049887;28;20154;-63
2023/08/04 05:19:27;;;;;;;7.25;3.38;;;;;;;;;;5064413;28;20041;-65
2023/08/04 05:21:54;;;;;;;6.95;3.15;;;;;;;;;;5063881;28;20061;-66
2023/08/04 05:24:20;;;;;;;8.80;3.80;;;;;;;;;;5052106;28;20534;-63
2023/08/04 05:26:46;;;;;;;5.72;3.42;;;;;;;;;;5053556;28;20057;-63
2023/08/04 05:29:13;;;;;;;9.02;3.13;;;;;;;;;;5057904;28;20130;-64
2023/08/04 05:31:39;;;;;;;7.20;3.55;;;;;;;;;;5059221;28;20055;-65
2023/08/04 05:34:05;;;;;;;9.55;5.60;;;;;;;;;;5060550;28;20590;-64
2023/08/04 05:36:32;;;;;;;9.98;3.83;;;;;;;;;;5064236;28;20119;-67
2023/08/04 05:38:58;;;;;;;5.80;3.05;;;;;;;;;;5065262;28;20049;-62
2023/08/04 05:41:25;;;;;;;6.53;3.75;;;;;;;;;;5063360;28;20132;-63
2023/08/04 05:43:51;;;;;;;10.80;4.50;;;;;;;;;;5057268;28;20082;-65
2023/08/04 05:46:17;;;;;;;13.70;3.92;;;;;;;;;;5060839;28;20053;-63
2023/08/04 05:48:44;;;;;;;12.30;3.45;;;;;;;;;;5064571;28;20053;-65
2023/08/04 05:51:10;;;;;;;8.82;3.28;;;;;;;;;;5063194;28;20049;-66
2023/08/04 05:53:38;;;;;;;7.93;3.95;;;;;;;;;;5058855;28;20172;-64
2023/08/04 05:56:04;;;;;;;10.70;3.47;;;;;;;;;;5062770;28;20053;-63
2023/08/04 05:58:30;;;;;;;10.93;3.60;;;;;;;;;;5062086;28;20559;-64
2023/08/04 06:00:57;;;;;;;7.05;3.30;;;;;;;;;;5044919;28;20057;-66
2023/08/04 06:03:23;;;;;;;8.82;3.50;;;;;;;;;;5049653;28;20128;-63
2023/08/04 06:05:50;;;;;;;6.03;3.42;;;;;;;;;;5044745;28;20650;-67
2023/08/04 06:08:16;;;;;;;9.77;3.17;;;;;;;;;;5063218;28;20491;-60
2023/08/04 06:10:43;;;;;;;8.80;4.20;;;;;;;;;;5064563;28;20544;-65
2023/08/04 06:13:09;;;;;;;9.90;3.78;;;;;;;;;;5061776;28;20053;-65
2023/08/04 06:15:35;;;;;;;10.38;3.70;;;;;;;;;;5062010;28;20103;-66
2023/08/04 06:18:02;;;;;;;9.35;3.30;;;;;;;;;;5064690;28;20052;-65
2023/08/04 06:20:28;;;;;;;9.32;3.45;;;;;;;;;;5059441;28;20053;-66
2023/08/04 06:22:55;;;;;;;5.78;3.45;;;;;;;;;;5061386;28;20200;-62
2023/08/04 06:25:21;;;;;;;9.30;3.38;;;;;;;;;;5064677;28;20056;-66
2023/08/04 06:27:49;;;;;;;8.52;3.60;;;;;;;;;;5064930;28;20049;-65
2023/08/04 06:30:16;;;;;;;9.80;3.50;;;;;;;;;;5060724;28;20068;-62
2023/08/04 06:32:43;;;;;;;10.32;3.80;;;;;;;;;;5051257;28;20499;-63
2023/08/04 06:35:09;;;;;;;8.18;3.58;;;;;;;;;;5063507;28;20531;-68
2023/08/04 06:37:35;;;;;;;8.82;3.45;;;;;;;;;;5051613;28;20050;-66
2023/08/04 06:40:03;;;;;;;4.50;3.88;;;;;;;;;;5050977;28;20110;-66
2023/08/04 06:42:30;;;;;;;9.00;4.13;;;;;;;;;;5044389;28;20131;-63
2023/08/04 06:44:56;;;;;;;8.63;3.92;;;;;;;;;;5043572;28;20060;-66
2023/08/04 06:47:23;;;;;;;5.57;3.15;;;;;;;;;;5043480;28;20147;-67
2023/08/04 06:49:49;;;;;;;5.28;2.90;;;;;;;;;;5046335;28;20081;-67
2023/08/04 06:52:16;;;;;;;5.57;2.70;;;;;;;;;;5062805;28;20142;-66
2023/08/04 06:54:43;;;;;;;7.32;3.03;;;;;;;;;;5061793;28;20060;-64
2023/08/04 06:57:09;;;;;;;4.72;3.33;;;;;;;;;;5061751;28;20049;-67
2023/08/04 06:59:35;;;;;;;4.32;3.30;;;;;;;;;;5052821;28;20569;-64
2023/08/04 07:02:02;;;;;;;7.30;3.60;;;;;;;;;;5061807;28;20088;-67
2023/08/04 07:04:28;;;;;;;7.85;3.38;;;;;;;;;;5054155;28;21049;-67
2023/08/04 07:06:56;;;;;;;10.15;4.15;;;;;;;;;;5054420;28;20508;-65
2023/08/04 07:09:22;;;;;;;4.28;3.53;;;;;;;;;;5049628;28;20059;-67
2023/08/04 07:11:49;;;;;;;6.05;3.63;;;;;;;;;;5062620;28;20084;-67
2023/08/04 07:14:15;;;;;;;7.00;3.22;;;;;;;;;;5061012;28;20088;-64
2023/08/04 07:16:46;;;;;;;12.55;4.10;;;;;;;;;;5059300;28;20107;-67
2023/08/04 07:19:13;;;;;;;4.80;3.20;;;;;;;;;;5062747;28;20057;-66
2023/08/04 07:21:40;;;;;;;6.53;3.63;;;;;;;;;;5061411;28;20436;-68
2023/08/04 07:24:07;;;;;;;7.80;3.25;;;;;;;;;;5062239;28;20057;-66
2023/08/04 07:26:34;;;;;;;6.03;3.85;;;;;;;;;;5048790;28;20080;-65
2023/08/04 07:29:01;;;;;;;6.53;3.25;;;;;;;;;;5060668;28;20550;-65
2023/08/04 07:31:27;;;;;;;7.32;3.22;;;;;;;;;;5049546;28;20057;-66
2023/08/04 07:33:55;;;;;;;8.57;3.55;;;;;;;;;;5059670;28;20075;-68
2023/08/04 07:36:22;;;;;;;12.35;3.67;;;;;;;;;;5060504;28;20045;-63
2023/08/04 07:38:48;;;;;;;7.65;3.70;;;;;;;;;;5051293;28;21079;-68
2023/08/04 07:41:18;;;;;;;4.53;2.80;;;;;;;;;;5061550;28;20553;-65
2023/08/04 07:43:44;;;;;;;3.95;3.05;;;;;;;;;;5060244;28;20606;-67
2023/08/04 07:46:18;;;;;;;3.72;2.65;;;;;;;;;;5062915;28;20527;-64
2023/08/04 07:48:44;;;;;;;8.52;3.63;;;;;;;;;;5060858;28;20057;-68
2023/08/04 07:51:11;;;;;;;4.75;3.20;;;;;;;;;;5042377;28;20049;-66
2023/08/04 07:53:37;;;;;;;6.30;2.78;;;;;;;;;;5056022;28;20060;-67
2023/08/04 07:56:04;;;;;;;6.60;2.80;;;;;;;;;;5061041;28;20050;-64
2023/08/04 07:58:30;;;;;;;4.10;2.65;;;;;;;;;;5062327;28;20119;-67
2023/08/04 08:00:56;;;;;;;3.00;2.40;;;;;;;;;;5061510;28;20087;-67
2023/08/04 08:03:23;;;;;;;2.03;1.83;;;;;;;;;;5058527;28;20049;-63
2023/08/04 08:05:50;;;;;;;5.45;1.83;;;;;;;;;;5059922;28;20894;-66
2023/08/04 08:08:17;;;;;;;4.03;1.90;;;;;;;;;;5043318;28;20103;-65
2023/08/04 08:10:44;;;;;;;1.77;1.52;;;;;;;;;;5042512;28;20057;-66
2023/08/04 08:13:10;;;;;;;3.38;2.05;;;;;;;;;;5042294;28;20065;-61
2023/08/04 08:15:36;;;;;;;5.68;1.65;;;;;;;;;;5055146;28;20053;-66
2023/08/04 08:18:03;;;;;;;4.85;1.85;;;;;;;;;;5060933;28;20065;-65
2023/08/04 08:20:30;;;;;;;3.15;1.55;;;;;;;;;;5062235;28;20150;-67
2023/08/04 08:22:56;;;;;;;4.93;1.80;;;;;;;;;;5046183;28;20108;-61
2023/08/04 08:25:23;;;;;;;7.22;1.83;;;;;;;;;;5062585;28;20338;-65
2023/08/04 08:27:49;;;;;;;7.18;2.85;;;;;;;;;;5062069;28;20075;-67
2023/08/04 08:30:16;;;;;;;5.15;1.40;;;;;;;;;;5060454;28;20057;-63
2023/08/04 08:32:42;;;;;;;3.50;1.80;;;;;;;;;;5060645;28;20059;-63
2023/08/04 08:35:09;;;;;;;2.30;1.30;;;;;;;;;;5048697;28;20049;-62
2023/08/04 08:37:35;;;;;;;2.45;1.15;;;;;;;;;;5042057;28;20319;-63
2023/08/04 08:40:02;;;;;;;2.45;1.30;;;;;;;;;;5042117;28;20061;-65
2023/08/04 08:42:28;;;;;;;3.80;1.38;;;;;;;;;;5044688;28;20073;-66
2023/08/04 08:44:55;;;;;;;4.60;1.60;;;;;;;;;;5045674;28;20132;-66
2023/08/04 08:47:21;;;;;;;4.45;1.45;;;;;;;;;;5048523;28;20057;-62
2023/08/04 08:49:55;;;;;;;2.17;1.55;;;;;;;;;;5052126;28;20045;-63
2023/08/04 08:52:22;;;;;;;3.85;1.70;;;;;;;;;;5059641;28;20059;-67
2023/08/04 08:54:49;;;;;;;2.78;1.55;;;;;;;;;;5060810;28;20519;-66
2023/08/04 08:57:15;;;;;;;2.00;1.80;;;;;;;;;;5059177;28;20152;-65
2023/08/04 08:59:42;;;;;;;3.72;1.60;;;;;;;;;;5060475;28;20144;-66
2023/08/04 09:02:08;;;;;;;2.42;1.60;;;;;;;;;;5077243;28;20054;-62
2023/08/04 09:04:37;;;;;;;7.82;1.88;;;;;;;;;;5044591;28;20096;-66
2023/08/04 09:07:04;;;;;;;6.88;1.42;;;;;;;;;;5044283;28;20448;-65
2023/08/04 09:09:30;;;;;;;5.40;2.13;;;;;;;;;;5045102;28;20077;-67
2023/08/04 09:11:57;;;;;;;7.85;1.75;;;;;;;;;;5045257;28;20085;-63
2023/08/04 09:14:23;;;;;;;3.08;1.58;;;;;;;;;;5047054;28;20563;-65
2023/08/04 09:16:49;;;;;;;4.32;1.52;;;;;;;;;;5064693;28;20055;-65
2023/08/04 09:19:16;;;;;;;6.72;1.80;;;;;;;;;;5062346;28;20547;-66
2023/08/04 09:21:43;;;;;;;2.45;1.40;;;;;;;;;;5063675;28;20602;-64
2023/08/04 09:24:13;;;;;;;8.07;2.10;;;;;;;;;;5064466;28;20055;-65
2023/08/04 09:26:43;;;;;;;3.03;1.45;;;;;;;;;;5064459;28;20048;-63
2023/08/04 09:29:10;;;;;;;2.92;1.58;;;;;;;;;;5063542;28;20590;-61
2023/08/04 09:31:40;;;;;;;4.95;1.40;;;;;;;;;;5059261;28;20063;-69
2023/08/04 09:34:08;;;;;;;3.80;2.10;;;;;;;;;;5064886;28;20136;-70
2023/08/04 09:36:41;;;;;;;2.00;1.58;;;;;;;;;;5056921;28;20106;-67
2023/08/04 09:39:11;;;;;;;5.30;1.70;;;;;;;;;;5063375;28;20692;-67
2023/08/04 09:41:41;;;;;;;3.55;1.27;;;;;;;;;;5064843;28;20136;-67
2023/08/04 09:44:08;;;;;;;6.13;1.63;;;;;;;;;;5065155;28;20140;-64
2023/08/04 09:46:39;;;;;;;2.50;1.38;;;;;;;;;;5060246;28;20494;-64
2023/08/04 09:49:07;;;;;;;3.85;1.48;;;;;;;;;;5062900;28;20088;-61
2023/08/04 09:51:38;;;;;;;5.07;1.75;;;;;;;;;;5049756;28;20053;-57
2023/08/04 09:54:05;;;;;;;5.20;1.52;;;;;;;;;;5044763;28;20507;-59
2023/08/04 09:56:32;;;;;;;3.80;1.63;;;;;;;;;;5043978;28;20049;-67
2023/08/04 09:58:58;;;;;;;4.10;1.08;;;;;;;;;;5044209;28;20053;-62
2023/08/04 10:01:25;;;;;;;6.88;1.77;;;;;;;;;;5057504;28;20507;-65
2023/08/04 10:03:53;;;;;;;4.03;1.85;;;;;;;;;;5064460;28;20056;-64
2023/08/04 10:06:21;;;;;;;4.35;1.75;;;;;;;;;;5064224;28;20052;-67
2023/08/04 10:08:48;;;;;;;7.78;1.80;;;;;;;;;;5063813;28;20606;-62
2023/08/04 10:11:15;;;;;;;3.03;1.27;;;;;;;;;;5064332;28;20495;-69
2023/08/04 10:13:42;;;;;;;4.70;1.77;;;;;;;;;;5054131;28;20106;-65
2023/08/04 10:16:11;;;;;;;4.30;1.65;;;;;;;;;;5052448;28;20104;-67
2023/08/04 10:19:04;;;;;;;2.33;1.50;;;;;;;;;;5060837;28;20057;-69
2023/08/04 10:21:36;;;;;;;5.65;1.83;;;;;;;;;;5062429;28;20049;-67
2023/08/04 10:24:07;;;;;;;2.70;1.58;;;;;;;;;;5063231;28;20415;-69
2023/08/04 10:26:34;;;;;;;3.20;1.55;;;;;;;;;;5063536;28;20052;-65
2023/08/04 10:29:05;;;;;;;5.45;1.75;;;;;;;;;;5043679;28;20141;-68
2023/08/04 10:31:47;;;;;;;4.55;1.80;;;;;;;;;;5059343;28;20061;-65
2023/08/04 10:34:24;;;;;;;9.68;1.70;;;;;;;;;;5065835;28;20048;-66
2023/08/04 10:37:01;;;;;;;5.38;1.50;;;;;;;;;;5062162;28;20143;-71
2023/08/04 10:39:31;;;;;;;4.47;1.63;;;;;;;;;;5047245;28;20409;-70
2023/08/04 10:41:58;;;;;;;3.80;1.58;;;;;;;;;;5055170;28;20049;-54
2023/08/04 10:44:46;;;;;;;4.25;1.58;;;;;;;;;;5047149;28;20088;-62
2023/08/04 10:47:13;;;;;;;2.78;1.30;;;;;;;;;;5043147;28;20057;-67
2023/08/04 10:49:40;;;;;;;3.03;1.10;;;;;;;;;;5043371;28;20103;-66
2023/08/04 10:52:06;;;;;;;5.60;1.38;;;;;;;;;;5043463;28;20068;-59
2023/08/04 10:54:33;;;;;;;3.63;1.33;;;;;;;;;;5042686;28;20053;-63
2023/08/04 10:56:59;;;;;;;2.78;1.60;;;;;;;;;;5042400;28;20144;-67
2023/08/04 10:59:26;;;;;;;6.78;1.48;;;;;;;;;;5042252;28;20154;-65
2023/08/04 11:01:52;;;;;;;3.95;1.10;;;;;;;;;;5043658;28;20061;-66
2023/08/04 11:04:19;;;;;;;9.48;2.00;;;;;;;;;;5043624;28;20104;-63
2023/08/04 11:06:48;;;;;;;8.38;2.40;;;;;;;;;;5043283;28;20481;-65
2023/08/04 11:09:14;;;;;;;6.78;2.22;;;;;;;;;;5043502;28;20060;-64
2023/08/04 11:11:41;;;;;;;10.55;1.60;;;;;;;;;;5057147;28;20106;-69
2023/08/04 11:14:07;;;;;;;2.58;1.63;;;;;;;;;;5057703;28;20057;-62
2023/08/04 11:16:35;;;;;;;3.25;1.30;;;;;;;;;;5047856;28;20076;-59
2023/08/04 11:19:03;;;;;;;4.40;1.50;;;;;;;;;;5053270;28;20503;-62
2023/08/04 11:21:30;;;;;;;4.30;1.40;;;;;;;;;;5061436;28;20057;-62
2023/08/04 11:23:56;;;;;;;4.65;1.60;;;;;;;;;;5063132;28;20130;-59
2023/08/04 11:26:23;;;;;;;3.63;1.10;;;;;;;;;;5056959;28;20358;-59
2023/08/04 11:28:49;;;;;;;6.68;1.20;;;;;;;;;;5061210;28;20064;-62
2023/08/04 11:31:20;;;;;;;2.55;0.90;;;;;;;;;;5058126;28;20567;-63
2023/08/04 11:33:46;;;;;;;2.78;1.27;;;;;;;;;;5061461;28;20128;-60
2023/08/04 11:36:13;;;;;;;2.83;0.80;;;;;;;;;;5068442;28;20049;-62
2023/08/04 11:38:39;;;;;;;4.20;0.90;;;;;;;;;;5064381;28;20582;-58
2023/08/04 11:41:08;;;;;;;2.60;1.20;;;;;;;;;;5062036;28;20093;-60
2023/08/04 11:43:35;;;;;;;1.98;1.08;;;;;;;;;;5061971;28;20524;-61
2023/08/04 11:46:08;;;;;;;1.92;1.00;;;;;;;;;;5050301;28;20656;-61
2023/08/04 11:48:38;;;;;;;2.83;1.20;;;;;;;;;;5058833;28;20053;-58
2023/08/04 11:51:05;;;;;;;4.97;1.02;;;;;;;;;;5061275;28;20064;-62
2023/08/04 11:53:32;;;;;;;2.53;1.02;;;;;;;;;;5045091;28;20557;-62
2023/08/04 11:55:59;;;;;;;3.92;1.40;;;;;;;;;;5062389;28;20100;-61
2023/08/04 11:58:36;;;;;;;4.75;1.30;;;;;;;;;;5059934;28;20056;-63
2023/08/04 12:01:03;;;;;;;4.35;1.30;;;;;;;;;;5061363;28;20732;-62
2023/08/04 12:03:59;;;;;;;3.78;1.20;;;;;;;;;;5059584;28;20115;-62
2023/08/04 12:06:26;;;;;;;2.70;1.10;;;;;;;;;;5046341;28;20511;-63
2023/08/04 12:08:53;;;;;;;1.80;1.10;;;;;;;;;;5058536;28;20057;-64
2023/08/04 12:11:21;;;;;;;3.03;1.38;;;;;;;;;;5058382;28;20059;-65
2023/08/04 12:13:47;;;;;;;3.22;1.20;;;;;;;;;;5061684;28;20053;-64
2023/08/04 12:16:15;;;;;;;2.38;1.30;;;;;;;;;;5061037;28;20057;-64
2023/08/04 12:18:42;;;;;;;2.92;0.93;;;;;;;;;;5061308;28;20492;-64
2023/08/04 12:21:11;;;;;;;2.08;1.25;;;;;;;;;;5046568;28;20050;-63
2023/08/04 12:23:38;;;;;;;1.98;1.10;;;;;;;;;;5055917;28;20050;-60
2023/08/04 12:26:05;;;;;;;3.28;1.17;;;;;;;;;;5057438;28;20781;-61
2023/08/04 12:28:31;;;;;;;3.38;1.23;;;;;;;;;;5059272;28;20056;-63
2023/08/04 12:30:58;;;;;;;2.75;1.50;;;;;;;;;;5059521;28;20124;-65
2023/08/04 12:33:40;;;;;;;2.17;1.00;;;;;;;;;;5063086;28;20398;-64
2023/08/04 12:36:07;;;;;;;2.60;1.42;;;;;;;;;;5063833;28;20048;-60
2023/08/04 12:38:33;;;;;;;4.03;1.25;;;;;;;;;;5063175;28;20053;-65
2023/08/04 12:41:00;;;;;;;1.58;1.00;;;;;;;;;;5060094;28;20586;-64
2023/08/04 12:43:26;;;;;;;2.60;1.15;;;;;;;;;;5061312;28;20053;-59
2023/08/04 12:45:53;;;;;;;2.60;1.10;;;;;;;;;;5063973;28;20143;-63
2023/08/04 12:48:19;;;;;;;4.97;1.40;;;;;;;;;;5059234;28;20099;-63
2023/08/04 12:50:46;;;;;;;4.63;1.13;;;;;;;;;;5055118;28;20085;-62
2023/08/04 12:53:14;;;;;;;5.43;1.15;;;;;;;;;;5044694;28;20501;-61
2023/08/04 12:55:41;;;;;;;1.27;0.98;;;;;;;;;;5049663;28;20124;-62
2023/08/04 12:58:07;;;;;;;3.13;1.02;;;;;;;;;;5058296;28;20111;-60
2023/08/04 13:00:34;;;;;;;3.20;1.20;;;;;;;;;;5064322;28;20553;-62
2023/08/04 13:03:00;;;;;;;1.75;0.95;;;;;;;;;;5064086;28;20077;-58
2023/08/04 13:05:27;;;;;;;3.70;1.10;;;;;;;;;;5064990;28;20486;-61
2023/08/04 13:07:53;;;;;;;2.60;1.08;;;;;;;;;;5070260;28;20060;-59
2023/08/04 13:10:20;;;;;;;5.15;1.55;;;;;;;;;;5053833;28;20063;-60
2023/08/04 13:12:46;;;;;;;1.80;1.13;;;;;;;;;;5062103;28;20057;-57
2023/08/04 13:15:12;;;;;;;5.25;1.25;;;;;;;;;;5055812;28;20136;-62
2023/08/04 13:17:39;;;;;;;2.63;1.00;;;;;;;;;;5058910;28;20077;-62
2023/08/04 13:20:08;;;;;;;1.13;0.90;;;;;;;;;;5058275;28;20143;-62
2023/08/04 13:22:35;;;;;;;2.92;1.20;;;;;;;;;;5052779;28;20440;-62
2023/08/04 13:25:03;;;;;;;3.40;1.30;;;;;;;;;;5064713;28;20067;-63
2023/08/04 13:27:30;;;;;;;2.13;1.20;;;;;;;;;;5065719;28;20442;-63
2023/08/04 13:29:57;;;;;;;3.95;1.63;;;;;;;;;;5055281;28;20053;-63
2023/08/04 13:32:23;;;;;;;3.58;0.93;;;;;;;;;;5061853;28;20127;-60
2023/08/04 13:34:50;;;;;;;3.95;1.15;;;;;;;;;;5057291;28;20064;-62
2023/08/04 13:37:16;;;;;;;3.33;0.80;;;;;;;;;;5056309;28;20107;-57
2023/08/04 13:39:43;;;;;;;3.42;1.30;;;;;;;;;;5063027;28;20060;-63
2023/08/04 13:42:09;;;;;;;3.38;0.88;;;;;;;;;;5059738;28;20049;-60
2023/08/04 13:44:35;;;;;;;3.47;1.13;;;;;;;;;;5059082;28;20795;-63
2023/08/04 13:47:02;;;;;;;1.20;1.02;;;;;;;;;;5056463;28;20570;-63
2023/08/04 13:49:29;;;;;;;3.85;1.45;;;;;;;;;;5053850;28;20145;-61
2023/08/04 13:51:55;;;;;;;3.65;1.40;;;;;;;;;;5054943;28;20053;-62
2023/08/04 13:54:22;;;;;;;2.83;1.10;;;;;;;;;;5051225;28;20053;-64
2023/08/04 13:56:48;;;;;;;4.57;1.27;;;;;;;;;;5055601;28;20045;-63
2023/08/04 13:59:15;;;;;;;3.25;1.25;;;;;;;;;;5058244;28;20437;-63
2023/08/04 14:01:42;;;;;;;2.50;1.45;;;;;;;;;;5044045;28;20064;-60
2023/08/04 14:04:08;;;;;;;2.50;1.20;;;;;;;;;;5058622;28;20053;-63
2023/08/04 14:06:35;;;;;;;1.85;1.25;;;;;;;;;;5061287;28;20187;-62
2023/08/04 14:09:02;;;;;;;4.03;1.70;;;;;;;;;;5055135;28;20049;-64
2023/08/04 14:11:29;;;;;;;6.95;3.00;;;;;;;;;;5054460;28;20495;-60
2023/08/04 14:13:55;;;;;;;2.72;1.20;;;;;;;;;;5060881;28;20420;-63
2023/08/04 14:16:21;;;;;;;1.67;1.20;;;;;;;;;;5057479;28;20053;-63
2023/08/04 14:18:48;;;;;;;3.70;1.45;;;;;;;;;;5048406;28;20052;-63
2023/08/04 14:21:14;;;;;;;1.30;1.02;;;;;;;;;;5051816;28;20161;-61
2023/08/04 14:23:41;;;;;;;3.53;1.08;;;;;;;;;;5063336;28;20496;-60
2023/08/04 14:26:07;;;;;;;2.40;0.80;;;;;;;;;;5058246;28;20111;-61
2023/08/04 14:28:34;;;;;;;1.25;0.77;;;;;;;;;;5058464;28;20050;-62
2023/08/04 14:31:00;;;;;;;2.67;1.13;;;;;;;;;;5055689;28;20053;-64
2023/08/04 14:33:27;;;;;;;3.40;1.10;;;;;;;;;;5050975;28;20104;-60
2023/08/04 14:35:53;;;;;;;2.75;1.40;;;;;;;;;;5049321;28;20226;-63
2023/08/04 14:38:20;;;;;;;2.85;1.80;;;;;;;;;;5058485;28;20523;-64
2023/08/04 14:40:46;;;;;;;2.40;1.00;;;;;;;;;;5055288;28;20057;-62